Bishop Auckland, United Kingdom
Current Conditions -  °F | °C
As of 6:20 AM on Tuesday 21 Oct 2014 (Local Time) from EGNV Reporting Station
Broken Clouds Broken Clouds  
Wind Chill: 54°   Ceiling: 2500
Heat Index: 54°   Visibility: 6mi
Dew Point: 52°   Wind: 21mph
Humidity: 94%   Direction: 200°SSW
Pressure: 29.18"   Gusts: NA
Location:  54.66°N, 1.68°W
Report Text: EGNV 210520Z 20018KT 9999 FEW015 BKN025 12/11 Q0988
Loading
Personal Weather Stations






























Interactive Weather Map
Tropical Storm Tracking
New forecast layout! Learn more

10-Day Weather Forecast

Advertisements
Track Severe Weather on mobile